createdAt,value
2022-10-23T00:00:00.100Z,821.27
2022-10-23T00:02:30.261Z,824.23
2022-10-23T00:05:00.396Z,867.53
2022-10-23T00:10:06.354Z,849.13
2022-10-23T00:12:36.452Z,853.43
2022-10-23T00:15:08.960Z,850.97
2022-10-23T00:17:39.170Z,814.33
2022-10-23T00:20:10.386Z,846.67
2022-10-23T00:22:40.552Z,848.90
2022-10-23T00:25:11.648Z,759.43
2022-10-23T00:27:41.969Z,706.73
2022-10-23T00:30:14.660Z,839.50
2022-10-23T00:32:44.755Z,855.63
2022-10-23T00:35:15.624Z,695.53
2022-10-23T00:37:45.822Z,566.97
2022-10-23T00:40:16.004Z,666.47
2022-10-23T00:42:46.177Z,791.87
2022-10-23T00:45:22.301Z,799.73
2022-10-23T00:47:52.535Z,789.20
2022-10-23T00:50:25.520Z,779.40
2022-10-23T00:52:58.287Z,804.90
2022-10-23T00:55:30.204Z,800.33
2022-10-23T00:58:00.586Z,788.20
2022-10-23T01:00:44.349Z,797.27
2022-10-23T01:03:17.063Z,751.07
2022-10-23T01:05:51.089Z,826.67
2022-10-23T01:08:29.153Z,725.50
2022-10-23T01:11:08.213Z,738.70
2022-10-23T01:13:57.229Z,777.53
2022-10-23T01:16:41.012Z,735.90
2022-10-23T01:19:21.606Z,745.87
2022-10-23T01:21:56.749Z,778.47
2022-10-23T01:24:45.174Z,785.97
2022-10-23T01:27:27.736Z,779.17
2022-10-23T01:30:05.948Z,784.57
2022-10-23T01:32:47.239Z,778.80
2022-10-23T01:35:21.868Z,782.57
2022-10-23T01:38:06.713Z,753.97
2022-10-23T01:40:45.353Z,731.50
2022-10-23T01:43:21.371Z,712.77
2022-10-23T01:45:55.094Z,598.90
2022-10-23T01:48:30.030Z,636.03
2022-10-23T01:51:02.788Z,745.43
2022-10-23T01:53:38.423Z,815.70
2022-10-23T01:56:13.324Z,798.47
2022-10-23T01:58:49.342Z,820.97
2022-10-23T02:01:22.785Z,809.00
2022-10-23T02:06:32.773Z,807.03
2022-10-23T02:09:03.214Z,802.33
2022-10-23T02:11:40.954Z,758.60
2022-10-23T02:14:18.606Z,804.67
2022-10-23T02:16:52.680Z,792.47
2022-10-23T02:19:30.465Z,809.77
2022-10-23T02:22:15.343Z,670.63
2022-10-23T02:24:50.991Z,612.73
2022-10-23T02:27:27.224Z,655.60
2022-10-23T02:30:06.588Z,701.87
2022-10-23T02:32:41.609Z,664.30
2022-10-23T02:35:15.686Z,535.60
2022-10-23T02:37:53.773Z,533.27
2022-10-23T02:40:33.821Z,449.90
2022-10-23T02:43:13.484Z,507.77
2022-10-23T02:45:56.104Z,472.53
2022-10-23T02:48:33.681Z,525.97
2022-10-23T02:51:18.162Z,513.33
2022-10-23T02:53:58.638Z,506.03
2022-10-23T02:56:41.220Z,467.17
2022-10-23T02:59:21.052Z,446.23
2022-10-23T03:01:58.703Z,473.77
2022-10-23T03:04:30.164Z,571.90
2022-10-23T03:07:00.537Z,650.57
2022-10-23T03:09:32.186Z,718.47
2022-10-23T03:12:02.278Z,766.27
2022-10-23T03:14:36.114Z,771.60
2022-10-23T03:17:08.245Z,752.30
2022-10-23T03:19:38.854Z,591.70
2022-10-23T03:22:09.086Z,549.93
2022-10-23T03:24:39.297Z,627.07
2022-10-23T03:27:11.365Z,723.20
2022-10-23T03:29:41.691Z,709.80
2022-10-23T03:32:13.224Z,708.33
2022-10-23T03:34:43.571Z,734.50
2022-10-23T03:37:13.724Z,690.47
2022-10-23T03:39:43.808Z,732.67
2022-10-23T03:42:13.960Z,682.67
2022-10-23T03:44:44.042Z,718.17
2022-10-23T03:47:15.498Z,719.90
2022-10-23T03:49:45.541Z,708.03
2022-10-23T03:52:15.866Z,711.73
2022-10-23T03:54:46.053Z,687.90
2022-10-23T03:57:16.358Z,728.73
2022-10-23T03:59:48.121Z,725.33
2022-10-23T04:02:21.313Z,700.23
2022-10-23T04:04:51.643Z,700.13
2022-10-23T04:07:22.876Z,724.73
2022-10-23T04:09:53.200Z,749.43
2022-10-23T04:12:23.490Z,706.17
2022-10-23T04:14:56.009Z,720.20
2022-10-23T04:19:58.615Z,747.37
2022-10-23T04:22:30.674Z,743.47
2022-10-23T04:25:01.136Z,687.53
2022-10-23T04:27:34.355Z,684.40
2022-10-23T04:30:05.884Z,679.27
2022-10-23T04:32:37.664Z,702.73
2022-10-23T04:35:09.275Z,702.17
2022-10-23T04:37:39.705Z,711.57
2022-10-23T04:40:11.077Z,708.10
2022-10-23T04:42:42.011Z,710.87
2022-10-23T04:45:12.601Z,738.73
2022-10-23T04:47:46.025Z,713.87
2022-10-23T04:50:16.872Z,751.93
2022-10-23T04:53:11.343Z,726.27
2022-10-23T04:56:00.766Z,616.50
2022-10-23T04:58:52.876Z,601.97
2022-10-23T05:01:23.317Z,753.67
2022-10-23T05:03:56.675Z,710.03
2022-10-23T05:06:27.316Z,743.17
2022-10-23T05:09:23.383Z,684.93
2022-10-23T05:12:09.484Z,703.33
2022-10-23T05:14:39.664Z,707.83
2022-10-23T05:17:14.748Z,735.23
2022-10-23T05:19:52.180Z,710.00
2022-10-23T05:22:28.162Z,642.90
2022-10-23T05:24:58.574Z,622.83
2022-10-23T05:27:30.115Z,628.93
2022-10-23T05:30:00.302Z,628.40
2022-10-23T05:32:34.904Z,636.93
2022-10-23T05:35:12.209Z,722.53
2022-10-23T05:37:46.263Z,639.77
2022-10-23T05:40:26.065Z,719.73
2022-10-23T05:43:04.372Z,599.60
2022-10-23T05:45:50.367Z,513.33
2022-10-23T05:48:36.273Z,487.80
2022-10-23T05:51:28.082Z,561.40
2022-10-23T05:54:16.723Z,616.10
2022-10-23T05:56:57.447Z,684.87
2022-10-23T05:59:46.456Z,707.97
2022-10-23T06:02:25.475Z,579.00
2022-10-23T06:05:01.752Z,714.73
2022-10-23T06:07:51.770Z,547.63
2022-10-23T06:10:22.632Z,662.77
2022-10-23T06:12:54.860Z,695.93
2022-10-23T06:15:25.009Z,698.40
2022-10-23T06:18:02.495Z,644.17
2022-10-23T06:20:37.908Z,538.97
2022-10-23T06:23:17.573Z,446.03
2022-10-23T06:26:07.619Z,374.93
2022-10-23T06:28:47.023Z,392.77
2022-10-23T06:31:19.113Z,475.67
2022-10-23T06:33:49.275Z,582.27
2022-10-23T06:36:19.870Z,614.93
2022-10-23T06:38:52.468Z,645.83
2022-10-23T06:41:24.776Z,716.63
2022-10-23T06:43:59.501Z,759.83
2022-10-23T06:46:42.652Z,755.80
2022-10-23T06:49:32.748Z,736.20
2022-10-23T06:52:03.356Z,758.80
2022-10-23T06:54:35.239Z,754.60
2022-10-23T06:57:21.827Z,775.47
2022-10-23T06:59:52.619Z,765.77
2022-10-23T07:02:23.754Z,746.57
2022-10-23T07:04:54.064Z,722.03
2022-10-23T07:07:26.808Z,739.00
2022-10-23T07:09:58.382Z,710.47
2022-10-23T07:12:36.120Z,747.93
2022-10-23T07:15:24.574Z,733.97
2022-10-23T07:17:56.569Z,736.57
2022-10-23T07:20:29.057Z,646.27
2022-10-23T07:22:59.429Z,501.33
2022-10-23T07:25:34.677Z,505.53
2022-10-23T07:28:05.335Z,279.93
2022-10-23T07:30:35.587Z,359.20
2022-10-23T07:33:06.551Z,452.43
2022-10-23T07:35:49.996Z,329.90
2022-10-23T07:38:28.343Z,438.30
2022-10-23T07:41:00.254Z,451.23
2022-10-23T07:43:33.741Z,481.77
2022-10-23T07:46:04.113Z,238.47
2022-10-23T07:48:41.459Z,262.90
2022-10-23T07:51:14.498Z,533.13
2022-10-23T07:53:50.745Z,839.63
2022-10-23T07:56:35.797Z,893.70
2022-10-23T07:59:19.074Z,801.63
2022-10-23T08:01:56.380Z,503.87
2022-10-23T08:04:31.403Z,702.83
2022-10-23T08:07:05.827Z,740.47
2022-10-23T08:09:41.721Z,808.77
2022-10-23T08:12:13.927Z,741.87
2022-10-23T08:14:44.278Z,999.90
2022-10-23T08:17:14.742Z,999.90
2022-10-23T08:20:03.313Z,999.90
2022-10-23T08:22:39.766Z,999.90
2022-10-23T08:25:11.193Z,999.90
2022-10-23T08:27:42.935Z,999.90
2022-10-23T08:30:13.661Z,999.90
2022-10-23T08:32:43.871Z,999.90
2022-10-23T08:35:15.881Z,999.90
2022-10-23T08:37:46.415Z,999.90
2022-10-23T08:40:17.838Z,999.90
2022-10-23T08:43:19.954Z,999.90
2022-10-23T08:46:09.334Z,999.90
2022-10-23T08:49:25.791Z,999.90
2022-10-23T08:52:14.240Z,999.90
2022-10-23T08:54:57.215Z,999.90
2022-10-23T08:57:33.380Z,999.90
2022-10-23T09:00:08.800Z,999.90
2022-10-23T09:02:43.483Z,999.90
2022-10-23T09:05:17.754Z,999.90
2022-10-23T09:08:05.923Z,999.90
2022-10-23T09:10:51.709Z,999.90
2022-10-23T09:13:46.450Z,999.90
2022-10-23T09:16:27.562Z,999.90
2022-10-23T09:19:01.632Z,999.90
2022-10-23T09:21:33.036Z,999.90
2022-10-23T09:24:03.203Z,999.90
2022-10-23T09:26:33.354Z,999.90
2022-10-23T09:29:19.829Z,999.90
2022-10-23T09:31:53.063Z,999.90
2022-10-23T09:34:25.737Z,999.90
2022-10-23T09:36:58.013Z,999.90
2022-10-23T09:39:30.751Z,999.90
2022-10-23T09:42:02.636Z,999.90
2022-10-23T09:44:34.163Z,999.90
2022-10-23T09:47:12.154Z,999.90
2022-10-23T09:49:49.300Z,999.90
2022-10-23T09:52:25.339Z,999.90
2022-10-23T09:54:57.646Z,999.90
2022-10-23T09:57:31.856Z,999.90
2022-10-23T10:00:03.952Z,999.90
2022-10-23T10:02:45.080Z,999.90
2022-10-23T10:05:40.276Z,999.90
2022-10-23T10:08:30.823Z,999.90
2022-10-23T10:11:05.735Z,999.90
2022-10-23T10:14:04.287Z,999.90
2022-10-23T10:16:43.744Z,999.90
2022-10-23T10:19:28.251Z,999.90
2022-10-23T10:22:08.829Z,999.90
2022-10-23T10:24:48.583Z,999.90
2022-10-23T10:27:30.041Z,999.90
2022-10-23T10:30:11.108Z,999.90
2022-10-23T10:32:47.891Z,999.90
2022-10-23T10:35:29.640Z,999.90
2022-10-23T10:38:15.619Z,999.90
2022-10-23T10:40:52.836Z,999.90
2022-10-23T10:43:44.336Z,999.90
2022-10-23T10:46:22.264Z,999.90
2022-10-23T10:49:00.588Z,999.90
2022-10-23T10:51:43.780Z,999.90
2022-10-23T10:54:26.868Z,999.90
2022-10-23T10:57:01.196Z,999.90
2022-10-23T10:59:37.815Z,999.90
2022-10-23T11:02:24.653Z,999.90
2022-10-23T11:05:01.595Z,999.90
2022-10-23T11:07:38.201Z,999.90
2022-10-23T11:10:16.594Z,999.90
2022-10-23T11:12:48.141Z,999.90
2022-10-23T11:15:22.344Z,999.90
2022-10-23T11:17:56.949Z,999.90
2022-10-23T11:20:45.079Z,999.90
2022-10-23T11:23:39.259Z,999.90
2022-10-23T11:26:24.267Z,999.90
2022-10-23T11:29:30.432Z,999.90
2022-10-23T11:32:18.100Z,999.90
2022-10-23T11:35:05.623Z,999.90
2022-10-23T11:37:35.835Z,999.90
2022-10-23T11:40:23.367Z,999.90
2022-10-23T11:42:53.584Z,999.90
2022-10-23T11:45:35.050Z,999.90
2022-10-23T11:48:06.895Z,999.90
2022-10-23T11:50:52.043Z,999.90
2022-10-23T11:53:28.367Z,999.90
2022-10-23T11:56:04.039Z,999.90
2022-10-23T11:58:44.551Z,999.90
2022-10-23T12:01:26.806Z,999.90
2022-10-23T12:04:00.229Z,999.90
2022-10-23T12:06:39.969Z,999.90
2022-10-23T12:09:25.593Z,999.90
2022-10-23T12:12:18.834Z,999.90
2022-10-23T12:14:50.163Z,999.90
2022-10-23T12:17:31.394Z,999.90
2022-10-23T12:20:20.576Z,999.90
2022-10-23T12:23:03.678Z,999.90
2022-10-23T12:25:44.462Z,999.90
2022-10-23T12:28:28.557Z,999.90
2022-10-23T12:31:14.419Z,999.90
2022-10-23T12:33:51.887Z,999.90
2022-10-23T12:36:39.058Z,999.90
2022-10-23T12:39:27.796Z,999.90
2022-10-23T12:41:57.943Z,999.90
2022-10-23T12:44:30.428Z,999.90
2022-10-23T12:47:02.972Z,999.90
2022-10-23T12:49:35.423Z,999.90
2022-10-23T12:52:07.107Z,999.90
2022-10-23T12:54:40.686Z,999.90
2022-10-23T12:57:20.951Z,999.90
2022-10-23T12:59:56.269Z,999.90
2022-10-23T13:02:28.045Z,999.90
2022-10-23T13:05:01.768Z,999.90
2022-10-23T13:07:36.552Z,999.90
2022-10-23T13:10:11.833Z,999.90
2022-10-23T13:12:55.463Z,999.90
2022-10-23T13:15:37.084Z,999.90
2022-10-23T13:18:07.999Z,999.90
2022-10-23T13:20:44.514Z,999.90
2022-10-23T13:23:19.980Z,999.90
2022-10-23T13:26:02.996Z,999.90
2022-10-23T13:28:36.941Z,999.90
2022-10-23T13:31:45.146Z,999.90
2022-10-23T13:35:17.292Z,999.90
2022-10-23T13:38:18.631Z,999.90
2022-10-23T13:41:03.341Z,999.90
2022-10-23T13:44:05.155Z,999.90
2022-10-23T13:47:01.262Z,999.90
2022-10-23T13:49:31.953Z,999.90
2022-10-23T13:52:46.502Z,999.90
2022-10-23T13:55:51.551Z,999.90
2022-10-23T13:58:30.059Z,999.90
2022-10-23T14:01:22.564Z,999.90
2022-10-23T14:04:02.381Z,999.90
2022-10-23T14:06:33.566Z,999.90
2022-10-23T14:09:07.923Z,999.90
2022-10-23T14:11:38.149Z,999.90
2022-10-23T14:14:10.636Z,999.90
2022-10-23T14:16:41.234Z,999.90
2022-10-23T14:19:28.425Z,999.90
2022-10-23T14:22:28.818Z,999.90
2022-10-23T14:25:08.305Z,999.90
2022-10-23T14:31:14.603Z,999.90
2022-10-23T14:34:01.795Z,999.90
2022-10-23T14:37:23.190Z,999.90
2022-10-23T14:40:11.639Z,999.90
2022-10-23T14:42:42.118Z,999.90
2022-10-23T14:45:12.634Z,999.90
2022-10-23T14:47:43.338Z,999.90
2022-10-23T14:50:15.215Z,999.90
2022-10-23T14:52:46.685Z,999.90
2022-10-23T14:55:16.875Z,999.90
2022-10-23T14:57:48.185Z,999.90
2022-10-23T15:00:42.217Z,999.90
2022-10-23T15:03:12.249Z,999.90
2022-10-23T15:05:43.097Z,999.90
2022-10-23T15:08:14.585Z,999.90
2022-10-23T15:10:44.715Z,999.90
2022-10-23T15:13:15.165Z,999.90
2022-10-23T15:15:45.690Z,999.90
2022-10-23T15:18:15.945Z,999.90
2022-10-23T15:20:55.294Z,999.90
2022-10-23T15:23:26.931Z,999.90
2022-10-23T15:25:58.792Z,999.90
2022-10-23T15:28:30.706Z,999.90
2022-10-23T15:31:01.080Z,999.90
2022-10-23T15:33:31.280Z,999.90
2022-10-23T15:36:01.337Z,999.90
2022-10-23T15:38:32.734Z,999.90
2022-10-23T15:41:15.523Z,999.90
2022-10-23T15:43:45.658Z,999.90
2022-10-23T15:46:15.998Z,999.90
2022-10-23T15:48:46.370Z,999.90
2022-10-23T15:51:16.716Z,999.90
2022-10-23T15:53:48.600Z,999.90
2022-10-23T15:56:21.396Z,999.90
2022-10-23T15:58:58.954Z,999.90
2022-10-23T16:01:29.594Z,999.90
2022-10-23T16:04:43.548Z,999.90
2022-10-23T16:07:16.520Z,999.90
2022-10-23T16:09:47.949Z,999.90
2022-10-23T16:12:18.397Z,999.90
2022-10-23T16:14:51.590Z,999.90
2022-10-23T16:17:21.811Z,999.90
2022-10-23T16:19:51.947Z,999.90
2022-10-23T16:22:21.978Z,999.90
2022-10-23T16:24:53.479Z,999.90
2022-10-23T16:27:23.726Z,999.90
2022-10-23T16:29:54.089Z,999.90
2022-10-23T16:32:24.225Z,999.90
2022-10-23T16:34:54.342Z,999.90
2022-10-23T16:40:19.553Z,999.90
2022-10-23T16:51:34.521Z,999.90
2022-10-23T16:54:04.732Z,999.90
2022-10-23T16:56:36.311Z,999.90
2022-10-23T16:59:06.512Z,999.90
2022-10-23T17:01:36.766Z,999.90
2022-10-23T17:04:08.182Z,999.90
2022-10-23T17:06:38.329Z,999.90
2022-10-23T17:09:08.438Z,999.90
2022-10-23T17:11:41.555Z,999.90
2022-10-23T17:14:14.636Z,999.90
2022-10-23T17:16:47.177Z,999.90
2022-10-23T17:19:43.749Z,999.90
2022-10-23T17:22:11.126Z,999.90
2022-10-23T17:24:42.208Z,999.90
2022-10-23T17:27:13.739Z,999.90
2022-10-23T17:29:43.855Z,999.90
2022-10-23T17:32:14.109Z,999.90
2022-10-23T17:34:44.552Z,999.90
2022-10-23T17:37:14.643Z,999.90
2022-10-23T17:39:44.938Z,999.90
2022-10-23T17:42:20.684Z,999.90
2022-10-23T17:44:51.120Z,999.90
2022-10-23T17:47:21.261Z,999.90
2022-10-23T17:49:51.433Z,999.90
2022-10-23T17:52:21.619Z,999.90
2022-10-23T17:54:52.760Z,999.90
2022-10-23T17:57:24.251Z,999.90
2022-10-23T17:59:54.451Z,999.90
2022-10-23T18:02:24.801Z,999.90
2022-10-23T18:04:55.079Z,999.90
2022-10-23T18:07:26.551Z,999.90
2022-10-23T18:09:56.742Z,999.90
2022-10-23T18:12:29.440Z,999.90
2022-10-23T18:15:00.869Z,999.90
2022-10-23T18:17:31.188Z,999.90
2022-10-23T18:20:02.352Z,999.90
2022-10-23T18:22:33.235Z,999.90
2022-10-23T18:25:04.467Z,999.90
2022-10-23T18:27:36.398Z,999.90
2022-10-23T18:30:07.620Z,999.90
2022-10-23T18:32:37.763Z,999.90
2022-10-23T18:35:09.059Z,999.90
2022-10-23T18:37:41.579Z,999.90
2022-10-23T18:40:13.772Z,999.90
2022-10-23T18:42:45.657Z,999.90
2022-10-23T18:45:16.830Z,999.90
2022-10-23T18:47:47.052Z,999.90
2022-10-23T18:50:17.447Z,999.90
2022-10-23T18:52:47.602Z,999.90
2022-10-23T18:55:17.926Z,999.90
2022-10-23T18:57:49.427Z,999.90
2022-10-23T19:00:19.580Z,999.90
2022-10-23T19:02:52.323Z,999.90
2022-10-23T19:05:22.937Z,999.90
2022-10-23T19:07:54.875Z,999.90
2022-10-23T19:10:27.888Z,999.90
2022-10-23T19:12:59.341Z,999.90
2022-10-23T19:15:29.734Z,999.90
2022-10-23T19:18:00.196Z,999.90
2022-10-23T19:20:30.508Z,999.90
2022-10-23T19:23:02.769Z,999.90
2022-10-23T19:25:34.661Z,999.90
2022-10-23T19:28:06.489Z,999.90
2022-10-23T19:30:36.611Z,999.90
2022-10-23T19:33:06.674Z,999.90
2022-10-23T19:35:36.821Z,999.90
2022-10-23T19:38:06.886Z,999.90
2022-10-23T19:40:37.030Z,999.90
2022-10-23T19:43:08.600Z,999.90
2022-10-23T19:45:38.597Z,999.90
2022-10-23T19:48:08.811Z,999.90
2022-10-23T19:50:39.071Z,999.90
2022-10-23T19:53:09.574Z,999.90
2022-10-23T19:55:39.692Z,999.90
2022-10-23T19:58:11.233Z,999.90
2022-10-23T20:00:41.543Z,999.90
2022-10-23T20:03:11.625Z,999.90
2022-10-23T20:05:45.738Z,999.90
2022-10-23T20:08:15.831Z,999.90
2022-10-23T20:10:47.949Z,999.90
2022-10-23T20:13:20.415Z,999.90
2022-10-23T20:15:50.764Z,999.90
2022-10-23T20:18:20.951Z,999.90
2022-10-23T20:20:51.028Z,999.90
2022-10-23T20:23:21.224Z,999.90
2022-10-23T20:25:51.378Z,999.90
2022-10-23T20:28:22.873Z,999.90
2022-10-23T20:30:52.920Z,999.90
2022-10-23T20:33:22.911Z,999.90
2022-10-23T20:35:53.161Z,999.90
2022-10-23T20:38:23.344Z,999.90
2022-10-23T20:40:56.956Z,999.90
2022-10-23T20:43:28.457Z,999.90
2022-10-23T20:45:59.421Z,999.90
2022-10-23T20:48:29.597Z,999.90
2022-10-23T20:51:03.760Z,999.90
2022-10-23T20:53:35.452Z,999.90
2022-10-23T20:56:07.373Z,999.90
2022-10-23T20:58:38.880Z,999.90
2022-10-23T21:01:11.079Z,999.90
2022-10-23T21:03:41.380Z,999.90
2022-10-23T21:06:13.299Z,999.90
2022-10-23T21:08:43.661Z,999.90
2022-10-23T21:11:41.785Z,999.90
2022-10-23T21:15:14.848Z,999.90
2022-10-23T21:17:48.828Z,999.90
2022-10-23T21:20:19.008Z,999.90
2022-10-23T21:22:53.774Z,999.90
2022-10-23T21:25:31.431Z,999.90
2022-10-23T21:28:01.544Z,999.90
2022-10-23T21:30:33.170Z,999.90
2022-10-23T21:33:03.275Z,999.90
2022-10-23T21:35:34.187Z,999.90
2022-10-23T21:38:04.377Z,999.90
2022-10-23T21:40:34.485Z,999.90
2022-10-23T21:43:05.769Z,999.90
2022-10-23T21:45:38.921Z,999.90
2022-10-23T21:48:09.150Z,999.90
2022-10-23T21:50:39.300Z,999.90
2022-10-23T21:53:09.396Z,999.90
2022-10-23T21:55:39.589Z,999.90
2022-10-23T21:58:10.188Z,999.90
2022-10-23T22:00:41.622Z,999.90
2022-10-23T22:03:11.752Z,999.90
2022-10-23T22:05:41.871Z,999.90
2022-10-23T22:08:12.334Z,999.90
2022-10-23T22:10:42.471Z,999.90
2022-10-23T22:13:12.635Z,999.90
2022-10-23T22:18:15.229Z,999.90
2022-10-23T22:20:45.411Z,999.90
2022-10-23T22:23:15.573Z,999.90
2022-10-23T22:25:45.806Z,999.90
2022-10-23T22:28:15.970Z,999.90
2022-10-23T22:30:47.418Z,999.90
2022-10-23T22:33:17.463Z,999.90
2022-10-23T22:35:47.492Z,999.90
2022-10-23T22:38:17.657Z,999.90
2022-10-23T22:43:23.076Z,999.90
2022-10-23T22:45:54.475Z,999.90
2022-10-23T22:48:24.669Z,999.90
2022-10-23T22:50:54.745Z,999.90
2022-10-23T22:53:24.890Z,999.90
2022-10-23T22:55:55.392Z,999.90
2022-10-23T22:58:26.432Z,999.90
2022-10-23T23:01:04.576Z,999.90
2022-10-23T23:03:36.396Z,999.90
2022-10-23T23:06:08.146Z,999.90
2022-10-23T23:08:39.842Z,999.90
2022-10-23T23:11:12.644Z,999.90
2022-10-23T23:13:43.151Z,999.90
2022-10-23T23:16:20.885Z,999.90
2022-10-23T23:18:51.020Z,999.90
2022-10-23T23:21:21.931Z,999.90
2022-10-23T23:23:52.451Z,999.90
2022-10-23T23:26:22.574Z,999.90
2022-10-23T23:28:53.645Z,999.90
2022-10-23T23:31:26.395Z,999.90
2022-10-23T23:33:56.823Z,999.90
2022-10-23T23:36:29.453Z,999.90
2022-10-23T23:38:59.916Z,999.90
2022-10-23T23:41:30.474Z,999.90
2022-10-23T23:44:00.645Z,999.90
2022-10-23T23:46:32.052Z,999.90
2022-10-23T23:49:02.133Z,999.90
2022-10-23T23:51:32.471Z,999.90
2022-10-23T23:54:02.491Z,999.90
2022-10-23T23:56:32.974Z,999.90
2022-10-23T23:59:03.115Z,999.90
